.
WxDataArchive / Data Records for 2012-11-03
2012-11-02 November 2012 2012-11-04

Data Records for Saturday, 03 November 2012

Time	Temp	Chill	HIndex	Humid	Dewpt	 Wind 	HiWind	WindDir	Rain 	Barom 
-----	----	-----	------	-----	-----	------	------	-------	-----	----- 
00:00	39.8	39.8	39.8	71	31.2	0	1	338	0.00	30.102 
00:05	39.8	39.8	39.8	71	31.2	0	1	338	0.00	30.102 
00:10	39.8	39.8	39.8	71	31.2	0	1	338	0.00	30.102 
00:15	39.8	39.8	39.8	72	31.5	0	1	338	0.00	30.101 
00:20	39.6	39.6	39.6	72	31.3	0	1	338	0.00	30.101 
00:25	39.6	39.6	39.6	72	31.3	0	0	---	0.00	30.101 
00:30	39.6	39.6	39.6	72	31.3	0	1	338	0.00	30.101 
00:35	39.6	39.6	39.6	73	31.7	0	0	---	0.00	30.101 
00:40	39.6	39.6	39.6	73	31.7	0	1	338	0.00	30.101 
00:45	39.6	39.6	39.6	73	31.7	0	0	---	0.00	30.101 
00:50	39.5	39.5	39.5	73	31.6	0	1	338	0.00	30.101 
00:55	39.5	39.5	39.5	73	31.6	0	1	338	0.00	30.101 
01:00	39.5	39.5	39.5	73	31.6	0	0	---	0.00	30.104 
01:05	39.5	39.5	39.5	73	31.6	0	0	---	0.00	30.104 
01:10	39.3	39.3	39.3	74	31.7	0	0	---	0.00	30.104 
01:15	39.3	39.3	39.3	74	31.7	0	1	338	0.00	30.114 
01:20	39.3	39.3	39.3	74	31.7	0	0	---	0.00	30.114 
01:25	39.3	39.3	39.3	74	31.7	0	1	338	0.00	30.114 
01:30	39.3	39.3	39.3	74	31.7	0	0	---	0.00	30.119 
01:35	39.2	39.2	39.2	75	32.0	0	1	338	0.00	30.119 
01:40	39.2	39.2	39.2	75	32.0	0	0	---	0.00	30.119 
01:45	39.2	39.2	39.2	75	32.0	0	1	338	0.00	30.119 
01:50	39.1	39.1	39.1	75	31.9	0	1	338	0.00	30.119 
01:55	39.1	39.1	39.1	75	31.9	0	0	---	0.00	30.119 
02:00	38.9	38.9	38.9	76	32.0	0	1	338	0.00	30.120 
02:05	38.8	38.8	38.8	76	31.9	0	0	---	0.00	30.120 
02:10	38.6	38.6	38.6	76	31.7	0	1	338	0.00	30.120 
02:15	38.5	38.5	38.5	76	31.6	0	1	338	0.00	30.120 
02:20	38.3	38.3	38.3	77	31.7	0	0	---	0.00	30.120 
02:25	38.2	38.2	38.2	77	31.6	0	0	---	0.00	30.120 
02:30	38.0	38.0	38.0	77	31.4	0	0	---	0.00	30.122 
02:35	37.9	37.9	37.9	78	31.7	0	0	---	0.00	30.122 
02:40	37.8	37.8	37.8	78	31.6	0	0	---	0.00	30.122 
02:45	37.6	37.6	37.6	78	31.4	0	0	---	0.00	30.129 
02:50	37.3	37.3	37.3	79	31.4	0	0	---	0.00	30.129 
02:55	37.2	37.2	37.2	79	31.3	0	0	---	0.00	30.129 
03:00	37.0	37.0	37.0	80	31.4	0	0	---	0.00	30.132 
03:05	36.8	36.8	36.8	80	31.2	0	0	---	0.00	30.132 
03:10	36.6	36.6	36.6	81	31.3	0	1	338	0.00	30.132 
03:15	36.6	36.6	36.6	81	31.3	0	1	338	0.00	30.134 
03:20	36.5	36.5	36.5	81	31.2	0	1	338	0.00	30.134 
03:25	36.5	36.5	36.5	81	31.2	0	1	338	0.00	30.134 
03:30	36.3	36.3	36.3	81	31.0	0	1	338	0.00	30.136 
03:35	36.3	36.3	36.3	80	30.7	0	1	338	0.00	30.136 
03:40	36.2	36.2	36.2	80	30.6	0	0	---	0.00	30.136 
03:45	35.9	35.9	35.9	81	30.6	0	1	338	0.00	30.136 
03:50	35.8	35.8	35.8	81	30.6	0	0	---	0.00	30.136 
03:55	35.8	35.8	35.8	81	30.6	0	1	338	0.00	30.136 
04:00	35.6	35.6	35.6	81	30.4	0	1	338	0.00	30.138 
04:05	35.6	35.6	35.6	81	30.4	0	1	338	0.00	30.138 
04:10	35.5	35.5	35.5	81	30.3	0	1	338	0.00	30.138 
04:15	35.2	35.2	35.2	81	30.0	0	1	338	0.00	30.139 
04:20	35.0	35.0	35.0	81	29.8	0	1	338	0.00	30.139 
04:25	34.9	34.9	34.9	81	29.7	0	1	338	0.00	30.139 
04:30	34.7	34.7	34.7	81	29.5	0	1	338	0.00	30.136 
04:35	34.6	34.6	34.6	81	29.4	0	0	---	0.00	30.136 
04:40	34.4	34.4	34.4	81	29.2	0	1	338	0.00	30.136 
04:45	34.3	34.3	34.3	81	29.1	0	0	---	0.00	30.139 
04:50	34.0	34.0	34.0	82	29.1	0	0	---	0.00	30.139 
04:55	33.8	33.8	33.8	82	28.9	0	0	---	0.00	30.139 
05:00	33.7	33.7	33.7	82	28.8	0	0	---	0.00	30.144 
05:05	33.5	33.5	33.5	83	28.9	0	0	---	0.00	30.144 
05:10	33.2	33.2	33.2	83	28.6	0	0	---	0.00	30.144 
05:15	33.1	33.1	33.1	83	28.5	0	0	---	0.00	30.150 
05:20	32.9	32.9	32.9	83	28.3	0	0	---	0.00	30.150 
05:25	32.8	32.8	32.8	84	28.5	0	0	---	0.00	30.150 
05:30	32.7	32.7	32.7	84	28.4	0	1	338	0.00	30.150 
05:35	32.7	32.7	32.7	84	28.4	0	0	---	0.00	30.150 
05:40	32.5	32.5	32.5	85	28.5	0	0	---	0.00	30.150 
05:45	32.5	32.5	32.5	85	28.5	0	0	---	0.00	30.152 
05:50	32.4	32.4	32.4	85	28.4	0	1	338	0.00	30.152 
05:55	32.4	32.4	32.4	85	28.4	0	0	---	0.00	30.152 
06:00	32.2	32.2	32.2	86	28.5	0	0	---	0.00	30.153 
06:05	32.1	32.1	32.1	86	28.4	0	0	---	0.00	30.153 
06:10	31.9	31.9	31.9	86	28.2	0	0	---	0.00	30.153 
06:15	31.9	31.9	31.9	86	28.2	0	1	338	0.00	30.153 
06:20	31.9	31.9	31.9	86	28.2	0	1	338	0.00	30.153 
06:25	31.8	31.8	31.8	86	28.1	0	0	---	0.00	30.153 
06:30	31.6	31.6	31.6	87	28.2	0	0	---	0.00	30.153 
06:35	31.6	31.6	31.6	87	28.2	0	0	---	0.00	30.153 
06:40	31.5	31.5	31.5	87	28.1	0	0	---	0.00	30.153 
06:45	31.3	31.3	31.3	87	27.9	0	0	---	0.00	30.156 
06:50	31.3	31.3	31.3	87	27.9	0	0	---	0.00	30.156 
06:55	31.5	31.5	31.5	88	28.4	0	0	---	0.00	30.156 
07:00	31.5	31.5	31.5	88	28.4	0	0	---	0.00	30.160 
07:05	31.5	31.5	31.5	88	28.4	0	0	---	0.00	30.160 
07:10	31.3	31.3	31.3	88	28.2	0	0	---	0.00	30.160 
07:15	31.2	31.2	31.2	88	28.1	0	0	---	0.00	30.158 
07:20	31.2	31.2	31.2	88	28.1	0	0	---	0.00	30.158 
07:25	31.0	31.0	31.0	88	27.9	0	0	---	0.00	30.158 
07:30	30.9	30.9	30.9	88	27.8	0	0	---	0.00	30.164 
07:35	30.9	30.9	30.9	88	27.8	0	0	---	0.00	30.164 
07:40	30.9	30.9	30.9	88	27.8	0	0	---	0.00	30.164 
07:45	30.9	30.9	30.9	88	27.8	0	0	---	0.00	30.171 
07:50	30.7	30.7	30.7	88	27.6	0	0	---	0.00	30.171 
07:55	30.6	30.6	30.6	88	27.5	0	0	---	0.00	30.171 
08:00	30.4	30.4	30.4	88	27.3	0	0	---	0.00	30.177 
08:05	30.1	30.1	30.1	88	27.0	0	0	---	0.00	30.177 
08:10	30.0	30.0	30.0	88	26.9	0	0	---	0.00	30.177 
08:15	29.7	29.7	29.7	88	26.6	0	0	---	0.00	30.176 
08:20	29.5	29.5	29.5	88	26.4	0	0	---	0.00	30.176 
08:25	29.4	29.4	29.4	88	26.3	0	0	---	0.00	30.176 
08:30	29.3	29.3	29.3	88	26.2	0	0	---	0.00	30.186 
08:35	29.1	29.1	29.1	88	26.0	0	0	---	0.00	30.186 
08:40	29.1	29.1	29.1	89	26.3	0	0	---	0.00	30.186 
08:45	29.1	29.1	29.1	89	26.3	0	0	---	0.00	30.191 
08:50	29.1	29.1	29.1	89	26.3	0	0	---	0.00	30.191 
08:55	29.1	29.1	29.1	89	26.3	0	0	---	0.00	30.191 
09:00	29.4	29.4	29.4	90	26.8	0	0	---	0.00	30.196 
09:05	29.7	29.7	29.7	90	27.1	0	0	---	0.00	30.196 
09:10	30.1	30.1	30.1	90	27.5	0	0	---	0.00	30.196 
09:15	30.4	30.4	30.4	90	27.8	0	0	---	0.00	30.199 
09:20	30.9	30.9	30.9	90	28.3	0	0	---	0.00	30.199 
09:25	31.5	31.5	31.5	91	29.2	0	0	---	0.00	30.199 
09:30	31.9	31.9	31.9	91	29.6	0	0	---	0.00	30.205 
09:35	32.4	32.4	32.4	91	30.1	0	0	---	0.00	30.205 
09:40	32.8	32.8	32.8	90	30.2	0	0	---	0.00	30.205 
09:45	33.2	33.2	33.2	90	30.6	0	0	---	0.00	30.207 
09:50	33.5	33.5	33.5	90	30.9	0	0	---	0.00	30.207 
09:55	33.8	33.8	33.8	88	30.6	0	1	338	0.00	30.207 
10:00	34.1	34.1	34.1	88	30.9	0	1	338	0.00	30.209 
10:05	34.6	34.6	34.6	87	31.1	0	0	---	0.00	30.209 
10:10	35.0	35.0	35.0	85	31.0	0	2	338	0.00	30.209 
10:15	35.3	35.3	35.3	84	31.0	0	1	338	0.00	30.203 
10:20	35.8	35.8	35.8	82	30.9	1	4	68	0.00	30.203 
10:25	36.2	36.2	36.2	81	30.9	0	3	68	0.00	30.203 
10:30	36.5	36.5	36.5	80	30.9	1	3	68	0.00	30.205 
10:35	36.9	36.9	36.9	79	31.0	0	3	68	0.00	30.205 
10:40	37.2	37.2	37.2	77	30.7	1	3	68	0.00	30.205 
10:45	37.3	37.3	37.3	76	30.4	1	4	90	0.00	30.204 
10:50	37.3	37.3	37.3	75	30.1	2	6	112	0.00	30.204 
10:55	37.3	37.3	37.3	74	29.8	2	5	112	0.00	30.204 
11:00	37.3	37.3	37.3	74	29.8	2	5	112	0.00	30.203 
11:05	37.5	37.5	37.5	74	30.0	1	4	112	0.00	30.203 
11:10	37.6	37.6	37.6	72	29.4	2	4	112	0.00	30.203 
11:15	37.6	37.6	37.6	73	29.7	0	2	112	0.00	30.203 
11:20	37.8	37.8	37.8	73	29.9	1	3	112	0.00	30.203 
11:25	37.9	37.9	37.9	72	29.7	1	4	112	0.00	30.203 
11:30	37.9	37.9	37.9	73	30.0	0	2	112	0.00	30.206 
11:35	38.0	38.0	38.0	72	29.8	1	4	112	0.00	30.206 
11:40	37.9	37.9	37.9	71	29.4	1	4	112	0.00	30.206 
11:45	38.0	38.0	38.0	71	29.4	1	4	112	0.00	30.198 
11:50	38.0	38.0	38.0	70	29.1	1	3	112	0.00	30.198 
11:55	38.0	38.0	38.0	69	28.7	1	5	112	0.00	30.198 
12:00	38.0	38.0	38.0	71	29.4	0	3	112	0.00	30.200 
12:05	38.3	38.3	38.3	70	29.4	0	3	90	0.00	30.200 
12:10	38.6	38.6	38.6	69	29.3	1	3	90	0.00	30.200 
12:15	38.9	38.9	38.9	70	30.0	0	2	90	0.00	30.200 
12:20	39.3	39.3	39.3	69	30.0	1	3	90	0.00	30.200 
12:25	39.3	39.3	39.3	69	30.0	1	3	90	0.00	30.200 
12:30	39.2	39.2	39.2	68	29.5	1	4	90	0.00	30.200 
12:35	39.3	39.3	39.3	67	29.3	1	4	90	0.00	30.200 
12:40	39.3	39.3	39.3	66	28.9	1	4	90	0.00	30.200 
12:45	39.3	39.3	39.3	67	29.3	1	4	112	0.00	30.199 
12:50	39.3	39.3	39.3	66	28.9	0	4	112	0.00	30.199 
12:55	39.5	39.5	39.5	66	29.1	1	3	112	0.00	30.199 
13:00	39.3	39.3	39.3	66	28.9	1	3	112	0.00	30.195 
13:05	39.3	39.3	39.3	65	28.5	0	2	112	0.00	30.195 
13:10	39.5	39.5	39.5	65	28.7	0	0	---	0.00	30.195 
13:15	39.6	39.6	39.6	65	28.8	0	2	112	0.00	30.184 
13:20	39.5	39.5	39.5	64	28.3	0	1	112	0.00	30.184 
13:25	39.3	39.3	39.3	65	28.5	0	2	112	0.00	30.184 
13:30	39.6	39.6	39.6	66	29.2	0	2	112	0.00	30.171 
13:35	40.2	40.2	40.2	65	29.4	1	3	112	0.00	30.171 
13:40	40.5	40.5	40.5	65	29.7	0	1	112	0.00	30.171 
13:45	40.8	40.8	40.8	65	30.0	1	4	112	0.00	30.178 
13:50	40.9	40.9	40.9	63	29.3	0	1	112	0.00	30.178 
13:55	41.1	41.1	41.1	63	29.5	0	2	112	0.00	30.178 
14:00	41.1	41.1	41.1	62	29.1	0	1	112	0.00	30.172 
14:05	41.1	41.1	41.1	63	29.5	0	4	112	0.00	30.172 
14:10	41.1	41.1	41.1	62	29.1	0	2	112	0.00	30.172 
14:15	40.9	40.9	40.9	62	28.9	0	3	112	0.00	30.169 
14:20	40.6	40.6	40.6	62	28.6	0	2	112	0.00	30.169 
14:25	40.6	40.6	40.6	63	29.0	0	3	112	0.00	30.169 
14:30	40.6	40.6	40.6	62	28.6	1	3	112	0.00	30.168 
14:35	40.6	40.6	40.6	62	28.6	1	2	112	0.00	30.168 
14:40	40.6	40.6	40.6	63	29.0	0	1	112	0.00	30.168 
14:45	40.6	40.6	40.6	63	29.0	0	2	112	0.00	30.167 
14:50	40.6	40.6	40.6	62	28.6	0	2	112	0.00	30.167 
14:55	40.6	40.6	40.6	62	28.6	0	2	112	0.00	30.167 
15:00	40.8	40.8	40.8	62	28.8	0	1	112	0.00	30.158 
15:05	40.9	40.9	40.9	61	28.5	0	1	112	0.00	30.158 
15:10	41.2	41.2	41.2	62	29.2	0	2	112	0.00	30.158 
15:15	41.6	41.6	41.6	61	29.2	1	3	112	0.00	30.151 
15:20	41.8	41.8	41.8	61	29.4	0	2	112	0.00	30.151 
15:25	41.9	41.9	41.9	61	29.4	0	3	112	0.00	30.151 
15:30	42.2	42.2	42.2	62	30.1	0	1	112	0.00	30.143 
15:35	42.3	42.3	42.3	60	29.4	0	2	112	0.00	30.143 
15:40	42.5	42.5	42.5	61	30.0	0	3	112	0.00	30.143 
15:45	42.5	42.5	42.5	61	30.0	0	2	112	0.00	30.139 
15:50	42.8	42.8	42.8	61	30.3	0	2	112	0.00	30.139 
15:55	42.9	42.9	42.9	59	29.6	0	2	112	0.00	30.139 
16:00	42.9	42.9	42.9	59	29.6	0	3	112	0.00	30.144 
16:05	43.1	43.1	43.1	60	30.2	0	2	112	0.00	30.144 
16:10	43.1	43.1	43.1	60	30.2	0	1	112	0.00	30.144 
16:15	43.3	43.3	43.3	60	30.4	0	2	112	0.00	30.149 
16:20	43.2	43.2	43.2	59	29.9	1	2	112	0.00	30.149 
16:25	43.2	43.2	43.2	60	30.3	0	1	112	0.00	30.149 
16:30	43.2	43.2	43.2	58	29.4	0	1	112	0.00	30.151 
16:35	43.5	43.5	43.5	60	30.5	0	2	112	0.00	30.151 
16:40	43.5	43.5	43.5	59	30.1	0	2	112	0.00	30.151 
16:45	43.5	43.5	43.5	59	30.1	0	0	---	0.00	30.141 
16:50	43.5	43.5	43.5	59	30.1	0	1	112	0.00	30.141 
16:55	43.5	43.5	43.5	59	30.1	0	1	112	0.00	30.141 
17:00	43.3	43.3	43.3	59	29.9	0	0	---	0.00	30.148 
17:05	43.3	43.3	43.3	59	29.9	0	0	---	0.00	30.148 
17:10	43.3	43.3	43.3	60	30.4	0	0	---	0.00	30.148 
17:15	43.5	43.5	43.5	60	30.5	0	1	112	0.00	30.149 
17:20	43.5	43.5	43.5	59	30.1	0	2	112	0.00	30.149 
17:25	43.6	43.6	43.6	59	30.2	0	1	112	0.00	30.149 
17:30	43.8	43.8	43.8	59	30.4	0	0	---	0.00	30.148 
17:35	43.8	43.8	43.8	59	30.4	0	1	112	0.00	30.148 
17:40	43.6	43.6	43.6	59	30.2	0	1	112	0.00	30.148 
17:45	43.5	43.5	43.5	58	29.7	0	1	112	0.00	30.145 
17:50	43.3	43.3	43.3	58	29.5	0	1	112	0.00	30.145 
17:55	43.3	43.3	43.3	59	29.9	0	1	112	0.00	30.145 
18:00	43.2	43.2	43.2	58	29.4	0	1	112	0.00	30.150 
18:05	43.1	43.1	43.1	58	29.3	0	0	---	0.00	30.150 
18:10	43.1	43.1	43.1	59	29.8	0	0	---	0.00	30.150 
18:15	42.9	42.9	42.9	59	29.6	0	0	---	0.00	30.145 
18:20	42.8	42.8	42.8	60	29.9	0	0	---	0.00	30.145 
18:25	42.8	42.8	42.8	61	30.3	0	1	112	0.00	30.145 
18:30	42.6	42.6	42.6	61	30.1	0	0	---	0.00	30.147 
18:35	42.5	42.5	42.5	62	30.4	0	0	---	0.00	30.147 
18:40	42.3	42.3	42.3	62	30.2	0	0	---	0.00	30.147 
18:45	42.2	42.2	42.2	62	30.1	0	0	---	0.00	30.152 
18:50	41.9	41.9	41.9	62	29.8	0	1	112	0.00	30.152 
18:55	41.9	41.9	41.9	63	30.2	0	1	112	0.00	30.152 
19:00	41.9	41.9	41.9	63	30.2	0	0	---	0.00	30.155 
19:05	41.9	41.9	41.9	64	30.6	0	1	112	0.00	30.155 
19:10	41.8	41.8	41.8	64	30.5	1	3	112	0.00	30.155 
19:15	41.5	41.5	41.5	64	30.2	0	3	68	0.00	30.161 
19:20	41.1	41.1	41.1	64	29.9	1	2	68	0.00	30.161 
19:25	40.8	40.8	40.8	65	30.0	0	1	68	0.00	30.161 
19:30	40.5	40.5	40.5	65	29.7	1	2	68	0.00	30.167 
19:35	40.3	40.3	40.3	66	29.9	0	1	68	0.00	30.167 
19:40	40.2	40.2	40.2	66	29.8	0	1	68	0.00	30.167 
19:45	40.1	40.1	40.1	66	29.7	0	1	68	0.00	30.167 
19:50	39.9	39.9	39.9	67	29.8	0	2	68	0.00	30.167 
19:55	39.9	39.9	39.9	67	29.8	0	0	---	0.00	30.167 
20:00	39.8	39.8	39.8	68	30.1	0	1	68	0.00	30.166 
20:05	39.5	39.5	39.5	68	29.8	0	2	68	0.00	30.166 
20:10	39.5	39.5	39.5	68	29.8	0	1	68	0.00	30.166 
20:15	39.2	39.2	39.2	69	29.9	0	1	68	0.00	30.174 
20:20	39.2	39.2	39.2	69	29.9	0	2	68	0.00	30.174 
20:25	39.1	39.1	39.1	69	29.8	0	1	68	0.00	30.174 
20:30	38.9	38.9	38.9	69	29.6	0	0	---	0.00	30.176 
20:35	38.8	38.8	38.8	69	29.5	0	0	---	0.00	30.176 
20:40	38.6	38.6	38.6	70	29.7	0	0	---	0.00	30.176 
20:45	38.6	38.6	38.6	70	29.7	0	0	---	0.00	30.171 
20:50	38.5	38.5	38.5	70	29.6	0	0	---	0.00	30.171 
20:55	38.6	38.6	38.6	70	29.7	0	1	68	0.00	30.171 
21:00	38.6	38.6	38.6	70	29.7	0	1	68	0.00	30.171 
21:05	38.6	38.6	38.6	70	29.7	0	1	68	0.00	30.171 
21:10	38.6	38.6	38.6	70	29.7	0	1	68	0.00	30.171 
21:15	38.5	38.5	38.5	71	29.9	0	1	68	0.00	30.163 
21:20	38.5	38.5	38.5	71	29.9	0	1	68	0.00	30.163 
21:25	38.5	38.5	38.5	71	29.9	0	1	68	0.00	30.163 
21:30	38.5	38.5	38.5	71	29.9	0	1	68	0.00	30.166 
21:35	38.5	38.5	38.5	71	29.9	0	0	---	0.00	30.166 
21:40	38.5	38.5	38.5	71	29.9	0	1	68	0.00	30.166 
21:45	38.5	38.5	38.5	71	29.9	0	1	68	0.00	30.172 
21:50	38.5	38.5	38.5	71	29.9	0	1	68	0.00	30.172 
21:55	38.5	38.5	38.5	71	29.9	0	1	68	0.00	30.172 
22:00	38.3	38.3	38.3	71	29.7	0	2	68	0.00	30.175 
22:05	38.2	38.2	38.2	70	29.3	0	2	68	0.00	30.175 
22:10	38.2	38.2	38.2	70	29.3	0	2	68	0.00	30.175 
22:15	38.0	38.0	38.0	70	29.1	0	2	68	0.00	30.179 
22:20	37.9	37.9	37.9	71	29.4	0	1	68	0.00	30.179 
22:25	37.8	37.8	37.8	71	29.3	0	2	68	0.00	30.179 
22:30	37.8	37.8	37.8	71	29.3	0	1	68	0.00	30.181 
22:35	37.6	37.6	37.6	72	29.4	0	1	68	0.00	30.181 
22:40	37.6	37.6	37.6	72	29.4	0	1	68	0.00	30.181 
22:45	37.5	37.5	37.5	72	29.3	0	2	68	0.00	30.186 
22:50	37.3	37.3	37.3	72	29.1	0	1	68	0.00	30.186 
22:55	37.3	37.3	37.3	72	29.1	0	1	68	0.00	30.186 
23:00	37.2	37.2	37.2	73	29.4	0	0	---	0.00	30.183 
23:05	37.0	37.0	37.0	73	29.2	0	0	---	0.00	30.183 
23:10	36.9	36.9	36.9	73	29.1	0	1	68	0.00	30.183 
23:15	36.8	36.8	36.8	73	29.0	0	1	68	0.00	30.181 
23:20	36.8	36.8	36.8	73	29.0	0	0	---	0.00	30.181 
23:25	36.6	36.6	36.6	73	28.8	0	1	68	0.00	30.181 
23:30	36.5	36.5	36.5	74	29.0	0	1	68	0.00	30.186 
23:35	36.5	36.5	36.5	74	29.0	0	1	68	0.00	30.186 
23:40	36.5	36.5	36.5	74	29.0	0	1	68	0.00	30.186 
23:45	36.5	36.5	36.5	74	29.0	0	0	---	0.00	30.187 
23:50	36.5	36.5	36.5	74	29.0	0	0	---	0.00	30.187 
23:55	36.3	36.3	36.3	74	28.8	0	0	---	0.00	30.187 

CoCoRaHS
IN-AL-39
A2 Web Hosting
Creative Commons License
GoDaddy
search engine by freefind advanced

loaded 2018-11-16 00:28:15 • last modified 2010-11-18 10:43:29
Privacy PolicyDisclaimer
• wx.awcolley.com is powered by PmWiki v.2002016 •
• all content (unless otherwise noted) © 2018 A W Colley